sensor_id;sensor_type;location;lat;lon;timestamp;P1;durP1;ratioP1;P2;durP2;ratioP2
62832;SDS011;48891;49.220;6.920;2024-02-23T00:00:25;8.35;;;6.47;;
62832;SDS011;48891;49.220;6.920;2024-02-23T00:02:50;9.50;;;7.10;;
62832;SDS011;48891;49.220;6.920;2024-02-23T00:05:16;8.82;;;7.28;;
62832;SDS011;48891;49.220;6.920;2024-02-23T00:07:41;8.23;;;6.57;;
62832;SDS011;48891;49.220;6.920;2024-02-23T00:10:06;9.35;;;7.03;;
62832;SDS011;48891;49.220;6.920;2024-02-23T00:12:32;9.68;;;7.10;;
62832;SDS011;48891;49.220;6.920;2024-02-23T00:14:57;10.20;;;7.13;;
62832;SDS011;48891;49.220;6.920;2024-02-23T00:17:22;9.52;;;6.97;;
62832;SDS011;48891;49.220;6.920;2024-02-23T00:19:48;8.90;;;6.88;;
62832;SDS011;48891;49.220;6.920;2024-02-23T00:22:13;8.85;;;6.97;;
62832;SDS011;48891;49.220;6.920;2024-02-23T00:24:38;9.43;;;7.18;;
62832;SDS011;48891;49.220;6.920;2024-02-23T00:27:03;9.55;;;6.95;;
62832;SDS011;48891;49.220;6.920;2024-02-23T00:29:29;9.20;;;7.43;;
62832;SDS011;48891;49.220;6.920;2024-02-23T00:31:54;8.63;;;7.13;;
62832;SDS011;48891;49.220;6.920;2024-02-23T00:34:19;8.23;;;6.47;;
62832;SDS011;48891;49.220;6.920;2024-02-23T00:36:45;10.35;;;6.90;;
62832;SDS011;48891;49.220;6.920;2024-02-23T00:39:10;9.57;;;6.70;;
62832;SDS011;48891;49.220;6.920;2024-02-23T00:41:35;9.23;;;7.03;;
62832;SDS011;48891;49.220;6.920;2024-02-23T00:44:01;8.50;;;6.53;;
62832;SDS011;48891;49.220;6.920;2024-02-23T00:46:27;9.65;;;6.78;;
62832;SDS011;48891;49.220;6.920;2024-02-23T00:48:52;8.38;;;6.72;;
62832;SDS011;48891;49.220;6.920;2024-02-23T00:51:17;9.77;;;6.57;;
62832;SDS011;48891;49.220;6.920;2024-02-23T00:53:43;8.20;;;6.78;;
62832;SDS011;48891;49.220;6.920;2024-02-23T00:56:08;8.90;;;6.72;;
62832;SDS011;48891;49.220;6.920;2024-02-23T00:58:34;10.00;;;6.90;;
62832;SDS011;48891;49.220;6.920;2024-02-23T01:00:59;7.88;;;6.03;;
62832;SDS011;48891;49.220;6.920;2024-02-23T01:03:25;9.50;;;6.95;;
62832;SDS011;48891;49.220;6.920;2024-02-23T01:05:50;9.23;;;6.72;;
62832;SDS011;48891;49.220;6.920;2024-02-23T01:08:15;10.70;;;6.57;;
62832;SDS011;48891;49.220;6.920;2024-02-23T01:10:40;8.35;;;6.45;;
62832;SDS011;48891;49.220;6.920;2024-02-23T01:13:06;8.70;;;6.32;;
62832;SDS011;48891;49.220;6.920;2024-02-23T01:15:31;10.18;;;6.88;;
62832;SDS011;48891;49.220;6.920;2024-02-23T01:17:56;7.97;;;6.30;;
62832;SDS011;48891;49.220;6.920;2024-02-23T01:20:21;10.40;;;6.90;;
62832;SDS011;48891;49.220;6.920;2024-02-23T01:22:47;9.88;;;6.68;;
62832;SDS011;48891;49.220;6.920;2024-02-23T01:25:12;8.77;;;6.65;;
62832;SDS011;48891;49.220;6.920;2024-02-23T01:27:37;8.07;;;6.72;;
62832;SDS011;48891;49.220;6.920;2024-02-23T01:30:03;9.23;;;6.65;;
62832;SDS011;48891;49.220;6.920;2024-02-23T01:32:29;8.10;;;6.60;;
62832;SDS011;48891;49.220;6.920;2024-02-23T01:34:54;7.97;;;5.78;;
62832;SDS011;48891;49.220;6.920;2024-02-23T01:37:19;7.72;;;5.80;;
62832;SDS011;48891;49.220;6.920;2024-02-23T01:39:44;8.15;;;6.20;;
62832;SDS011;48891;49.220;6.920;2024-02-23T01:42:10;8.63;;;6.55;;
62832;SDS011;48891;49.220;6.920;2024-02-23T01:44:35;9.10;;;6.05;;
62832;SDS011;48891;49.220;6.920;2024-02-23T01:47:00;6.85;;;5.90;;
62832;SDS011;48891;49.220;6.920;2024-02-23T01:49:25;8.95;;;6.50;;
62832;SDS011;48891;49.220;6.920;2024-02-23T01:51:51;7.18;;;5.88;;
62832;SDS011;48891;49.220;6.920;2024-02-23T01:54:16;8.32;;;6.68;;
62832;SDS011;48891;49.220;6.920;2024-02-23T01:56:42;9.07;;;6.50;;
62832;SDS011;48891;49.220;6.920;2024-02-23T01:59:07;7.95;;;5.85;;
62832;SDS011;48891;49.220;6.920;2024-02-23T02:01:35;8.43;;;6.25;;
62832;SDS011;48891;49.220;6.920;2024-02-23T02:04:01;7.57;;;5.57;;
62832;SDS011;48891;49.220;6.920;2024-02-23T02:06:26;8.23;;;6.47;;
62832;SDS011;48891;49.220;6.920;2024-02-23T02:08:51;8.32;;;6.10;;
62832;SDS011;48891;49.220;6.920;2024-02-23T02:11:17;7.53;;;5.97;;
62832;SDS011;48891;49.220;6.920;2024-02-23T02:13:42;7.65;;;6.20;;
62832;SDS011;48891;49.220;6.920;2024-02-23T02:16:07;7.35;;;5.88;;
62832;SDS011;48891;49.220;6.920;2024-02-23T02:18:33;9.00;;;6.30;;
62832;SDS011;48891;49.220;6.920;2024-02-23T02:20:58;8.93;;;6.13;;
62832;SDS011;48891;49.220;6.920;2024-02-23T02:23:23;7.75;;;6.15;;
62832;SDS011;48891;49.220;6.920;2024-02-23T02:25:55;7.13;;;5.60;;
62832;SDS011;48891;49.220;6.920;2024-02-23T02:28:21;6.60;;;5.53;;
62832;SDS011;48891;49.220;6.920;2024-02-23T02:30:48;7.43;;;6.00;;
62832;SDS011;48891;49.220;6.920;2024-02-23T02:33:14;8.07;;;6.38;;
62832;SDS011;48891;49.220;6.920;2024-02-23T02:35:39;7.65;;;5.72;;
62832;SDS011;48891;49.220;6.920;2024-02-23T02:38:04;7.30;;;6.28;;
62832;SDS011;48891;49.220;6.920;2024-02-23T02:40:29;7.20;;;6.13;;
62832;SDS011;48891;49.220;6.920;2024-02-23T02:42:55;7.60;;;5.93;;
62832;SDS011;48891;49.220;6.920;2024-02-23T02:45:20;8.80;;;6.00;;
62832;SDS011;48891;49.220;6.920;2024-02-23T02:47:46;7.57;;;5.75;;
62832;SDS011;48891;49.220;6.920;2024-02-23T02:50:11;8.68;;;6.22;;
62832;SDS011;48891;49.220;6.920;2024-02-23T02:52:36;8.15;;;6.32;;
62832;SDS011;48891;49.220;6.920;2024-02-23T02:55:01;6.95;;;5.72;;
62832;SDS011;48891;49.220;6.920;2024-02-23T02:57:27;8.10;;;5.47;;
62832;SDS011;48891;49.220;6.920;2024-02-23T02:59:52;6.75;;;5.32;;
62832;SDS011;48891;49.220;6.920;2024-02-23T03:02:17;7.68;;;5.38;;
62832;SDS011;48891;49.220;6.920;2024-02-23T03:04:49;7.18;;;5.75;;
62832;SDS011;48891;49.220;6.920;2024-02-23T03:07:14;7.50;;;5.53;;
62832;SDS011;48891;49.220;6.920;2024-02-23T03:09:40;6.68;;;5.47;;
62832;SDS011;48891;49.220;6.920;2024-02-23T03:12:06;8.10;;;6.15;;
62832;SDS011;48891;49.220;6.920;2024-02-23T03:14:31;7.22;;;5.70;;
62832;SDS011;48891;49.220;6.920;2024-02-23T03:16:56;8.07;;;6.18;;
62832;SDS011;48891;49.220;6.920;2024-02-23T03:19:22;7.28;;;5.68;;
62832;SDS011;48891;49.220;6.920;2024-02-23T03:21:47;6.88;;;5.15;;
62832;SDS011;48891;49.220;6.920;2024-02-23T03:24:12;7.53;;;5.55;;
62832;SDS011;48891;49.220;6.920;2024-02-23T03:26:37;7.45;;;5.82;;
62832;SDS011;48891;49.220;6.920;2024-02-23T03:29:03;7.32;;;5.47;;
62832;SDS011;48891;49.220;6.920;2024-02-23T03:31:28;8.13;;;6.00;;
62832;SDS011;48891;49.220;6.920;2024-02-23T03:33:53;9.13;;;6.40;;
62832;SDS011;48891;49.220;6.920;2024-02-23T03:36:18;6.88;;;5.07;;
62832;SDS011;48891;49.220;6.920;2024-02-23T03:38:44;7.30;;;5.53;;
62832;SDS011;48891;49.220;6.920;2024-02-23T03:41:09;6.72;;;5.53;;
62832;SDS011;48891;49.220;6.920;2024-02-23T03:43:34;7.57;;;5.57;;
62832;SDS011;48891;49.220;6.920;2024-02-23T03:45:59;7.78;;;5.60;;
62832;SDS011;48891;49.220;6.920;2024-02-23T03:48:24;7.45;;;5.65;;
62832;SDS011;48891;49.220;6.920;2024-02-23T03:50:50;7.85;;;5.60;;
62832;SDS011;48891;49.220;6.920;2024-02-23T03:53:15;7.47;;;5.65;;
62832;SDS011;48891;49.220;6.920;2024-02-23T03:55:40;6.75;;;4.97;;
62832;SDS011;48891;49.220;6.920;2024-02-23T03:58:05;7.07;;;5.32;;
62832;SDS011;48891;49.220;6.920;2024-02-23T04:00:31;7.38;;;5.70;;
62832;SDS011;48891;49.220;6.920;2024-02-23T04:02:56;6.82;;;5.13;;
62832;SDS011;48891;49.220;6.920;2024-02-23T04:05:21;8.13;;;5.65;;
62832;SDS011;48891;49.220;6.920;2024-02-23T04:07:47;8.15;;;5.38;;
62832;SDS011;48891;49.220;6.920;2024-02-23T04:10:12;7.28;;;5.47;;
62832;SDS011;48891;49.220;6.920;2024-02-23T04:12:38;8.10;;;5.20;;
62832;SDS011;48891;49.220;6.920;2024-02-23T04:15:03;6.40;;;5.43;;
62832;SDS011;48891;49.220;6.920;2024-02-23T04:17:28;7.30;;;5.38;;
62832;SDS011;48891;49.220;6.920;2024-02-23T04:19:54;7.38;;;5.43;;
62832;SDS011;48891;49.220;6.920;2024-02-23T04:22:19;5.95;;;5.00;;
62832;SDS011;48891;49.220;6.920;2024-02-23T04:24:44;7.82;;;5.68;;
62832;SDS011;48891;49.220;6.920;2024-02-23T04:27:09;7.68;;;5.40;;
62832;SDS011;48891;49.220;6.920;2024-02-23T04:29:35;6.40;;;5.20;;
62832;SDS011;48891;49.220;6.920;2024-02-23T04:32:00;7.07;;;5.32;;
62832;SDS011;48891;49.220;6.920;2024-02-23T04:34:26;7.20;;;5.55;;
62832;SDS011;48891;49.220;6.920;2024-02-23T04:36:51;7.57;;;5.10;;
62832;SDS011;48891;49.220;6.920;2024-02-23T04:39:16;8.63;;;5.88;;
62832;SDS011;48891;49.220;6.920;2024-02-23T04:41:42;7.20;;;5.20;;
62832;SDS011;48891;49.220;6.920;2024-02-23T04:44:07;7.05;;;5.22;;
62832;SDS011;48891;49.220;6.920;2024-02-23T04:46:32;6.63;;;4.95;;
62832;SDS011;48891;49.220;6.920;2024-02-23T04:48:57;7.10;;;5.15;;
62832;SDS011;48891;49.220;6.920;2024-02-23T04:51:23;5.93;;;5.15;;
62832;SDS011;48891;49.220;6.920;2024-02-23T04:53:48;7.38;;;5.13;;
62832;SDS011;48891;49.220;6.920;2024-02-23T04:56:14;7.60;;;5.28;;
62832;SDS011;48891;49.220;6.920;2024-02-23T04:58:40;8.02;;;5.63;;
62832;SDS011;48891;49.220;6.920;2024-02-23T05:01:05;7.13;;;5.07;;
62832;SDS011;48891;49.220;6.920;2024-02-23T05:03:30;7.88;;;5.50;;
62832;SDS011;48891;49.220;6.920;2024-02-23T05:05:55;6.47;;;4.82;;
62832;SDS011;48891;49.220;6.920;2024-02-23T05:08:21;6.85;;;5.40;;
62832;SDS011;48891;49.220;6.920;2024-02-23T05:10:46;7.78;;;4.93;;
62832;SDS011;48891;49.220;6.920;2024-02-23T05:13:12;8.85;;;4.88;;
62832;SDS011;48891;49.220;6.920;2024-02-23T05:15:37;6.82;;;4.95;;
62832;SDS011;48891;49.220;6.920;2024-02-23T05:18:02;6.75;;;5.10;;
62832;SDS011;48891;49.220;6.920;2024-02-23T05:20:28;6.05;;;4.60;;
62832;SDS011;48891;49.220;6.920;2024-02-23T05:22:53;6.13;;;4.72;;
62832;SDS011;48891;49.220;6.920;2024-02-23T05:25:18;7.25;;;5.10;;
62832;SDS011;48891;49.220;6.920;2024-02-23T05:27:43;6.82;;;5.25;;
62832;SDS011;48891;49.220;6.920;2024-02-23T05:30:09;6.90;;;4.70;;
62832;SDS011;48891;49.220;6.920;2024-02-23T05:32:35;6.70;;;5.32;;
62832;SDS011;48891;49.220;6.920;2024-02-23T05:35:00;6.28;;;5.05;;
62832;SDS011;48891;49.220;6.920;2024-02-23T05:37:25;6.63;;;4.85;;
62832;SDS011;48891;49.220;6.920;2024-02-23T05:39:50;6.93;;;4.85;;
62832;SDS011;48891;49.220;6.920;2024-02-23T05:42:15;7.35;;;5.40;;
62832;SDS011;48891;49.220;6.920;2024-02-23T05:44:44;6.05;;;4.45;;
62832;SDS011;48891;49.220;6.920;2024-02-23T05:47:11;6.13;;;4.43;;
62832;SDS011;48891;49.220;6.920;2024-02-23T05:49:36;7.03;;;4.97;;
62832;SDS011;48891;49.220;6.920;2024-02-23T05:52:01;5.80;;;4.40;;
62832;SDS011;48891;49.220;6.920;2024-02-23T05:54:27;6.97;;;5.07;;
62832;SDS011;48891;49.220;6.920;2024-02-23T05:56:52;7.45;;;4.90;;
62832;SDS011;48891;49.220;6.920;2024-02-23T05:59:17;6.25;;;4.75;;
62832;SDS011;48891;49.220;6.920;2024-02-23T06:01:43;6.07;;;4.60;;
62832;SDS011;48891;49.220;6.920;2024-02-23T06:04:08;6.40;;;4.47;;
62832;SDS011;48891;49.220;6.920;2024-02-23T06:06:33;6.97;;;4.70;;
62832;SDS011;48891;49.220;6.920;2024-02-23T06:08:58;7.53;;;4.90;;
62832;SDS011;48891;49.220;6.920;2024-02-23T06:11:24;6.25;;;4.68;;
62832;SDS011;48891;49.220;6.920;2024-02-23T06:13:49;6.63;;;4.68;;
62832;SDS011;48891;49.220;6.920;2024-02-23T06:16:14;6.88;;;5.07;;
62832;SDS011;48891;49.220;6.920;2024-02-23T06:18:40;6.15;;;4.43;;
62832;SDS011;48891;49.220;6.920;2024-02-23T06:21:11;6.10;;;4.43;;
62832;SDS011;48891;49.220;6.920;2024-02-23T06:23:40;7.07;;;4.78;;
62832;SDS011;48891;49.220;6.920;2024-02-23T06:26:06;6.38;;;4.70;;
62832;SDS011;48891;49.220;6.920;2024-02-23T06:28:33;7.03;;;5.07;;
62832;SDS011;48891;49.220;6.920;2024-02-23T06:30:58;6.30;;;4.80;;
62832;SDS011;48891;49.220;6.920;2024-02-23T06:33:23;5.60;;;4.35;;
62832;SDS011;48891;49.220;6.920;2024-02-23T06:35:49;5.80;;;4.82;;
62832;SDS011;48891;49.220;6.920;2024-02-23T06:38:14;6.32;;;4.70;;
62832;SDS011;48891;49.220;6.920;2024-02-23T06:40:39;5.95;;;4.70;;
62832;SDS011;48891;49.220;6.920;2024-02-23T06:43:04;7.57;;;4.78;;
62832;SDS011;48891;49.220;6.920;2024-02-23T06:45:30;7.10;;;5.13;;
62832;SDS011;48891;49.220;6.920;2024-02-23T06:47:55;5.93;;;4.68;;
62832;SDS011;48891;49.220;6.920;2024-02-23T06:50:20;6.63;;;4.32;;
62832;SDS011;48891;49.220;6.920;2024-02-23T06:52:45;5.57;;;4.53;;
62832;SDS011;48891;49.220;6.920;2024-02-23T06:55:10;6.85;;;4.80;;
62832;SDS011;48891;49.220;6.920;2024-02-23T06:57:36;6.30;;;4.38;;
62832;SDS011;48891;49.220;6.920;2024-02-23T07:00:01;6.60;;;5.00;;
62832;SDS011;48891;49.220;6.920;2024-02-23T07:02:27;6.60;;;5.13;;
62832;SDS011;48891;49.220;6.920;2024-02-23T07:04:52;8.70;;;5.30;;
62832;SDS011;48891;49.220;6.920;2024-02-23T07:07:17;7.93;;;4.82;;
62832;SDS011;48891;49.220;6.920;2024-02-23T07:09:42;6.30;;;4.95;;
62832;SDS011;48891;49.220;6.920;2024-02-23T07:12:08;7.90;;;5.03;;
62832;SDS011;48891;49.220;6.920;2024-02-23T07:14:33;5.75;;;4.78;;
62832;SDS011;48891;49.220;6.920;2024-02-23T07:16:58;7.60;;;5.20;;
62832;SDS011;48891;49.220;6.920;2024-02-23T07:19:23;7.65;;;5.10;;
62832;SDS011;48891;49.220;6.920;2024-02-23T07:21:49;7.80;;;5.43;;
62832;SDS011;48891;49.220;6.920;2024-02-23T07:24:14;7.63;;;5.63;;
62832;SDS011;48891;49.220;6.920;2024-02-23T07:26:39;8.38;;;5.47;;
62832;SDS011;48891;49.220;6.920;2024-02-23T07:29:05;7.20;;;5.20;;
62832;SDS011;48891;49.220;6.920;2024-02-23T07:31:30;7.20;;;5.10;;
62832;SDS011;48891;49.220;6.920;2024-02-23T07:33:56;7.57;;;5.68;;
62832;SDS011;48891;49.220;6.920;2024-02-23T07:36:21;8.13;;;5.45;;
62832;SDS011;48891;49.220;6.920;2024-02-23T07:38:47;7.35;;;5.45;;
62832;SDS011;48891;49.220;6.920;2024-02-23T07:41:12;6.07;;;5.10;;
62832;SDS011;48891;49.220;6.920;2024-02-23T07:43:39;7.43;;;5.68;;
62832;SDS011;48891;49.220;6.920;2024-02-23T07:46:04;8.13;;;5.65;;
62832;SDS011;48891;49.220;6.920;2024-02-23T07:48:30;8.85;;;5.57;;
62832;SDS011;48891;49.220;6.920;2024-02-23T07:50:55;8.10;;;5.55;;
62832;SDS011;48891;49.220;6.920;2024-02-23T07:53:21;7.22;;;5.10;;
62832;SDS011;48891;49.220;6.920;2024-02-23T07:55:46;8.07;;;5.88;;
62832;SDS011;48891;49.220;6.920;2024-02-23T07:58:11;7.68;;;5.60;;
62832;SDS011;48891;49.220;6.920;2024-02-23T08:00:36;8.02;;;5.82;;
62832;SDS011;48891;49.220;6.920;2024-02-23T08:03:01;7.57;;;6.05;;
62832;SDS011;48891;49.220;6.920;2024-02-23T08:05:27;7.00;;;5.63;;
62832;SDS011;48891;49.220;6.920;2024-02-23T08:07:52;9.52;;;6.40;;
62832;SDS011;48891;49.220;6.920;2024-02-23T08:10:17;8.75;;;6.50;;
62832;SDS011;48891;49.220;6.920;2024-02-23T08:12:42;7.85;;;6.30;;
62832;SDS011;48891;49.220;6.920;2024-02-23T08:15:08;8.55;;;6.20;;
62832;SDS011;48891;49.220;6.920;2024-02-23T08:17:33;8.00;;;7.18;;
62832;SDS011;48891;49.220;6.920;2024-02-23T08:19:58;8.15;;;6.32;;
62832;SDS011;48891;49.220;6.920;2024-02-23T08:22:24;7.30;;;5.68;;
62832;SDS011;48891;49.220;6.920;2024-02-23T08:24:49;8.52;;;6.13;;
62832;SDS011;48891;49.220;6.920;2024-02-23T08:27:14;8.25;;;6.30;;
62832;SDS011;48891;49.220;6.920;2024-02-23T08:29:40;9.02;;;6.40;;
62832;SDS011;48891;49.220;6.920;2024-02-23T08:32:05;8.70;;;6.32;;
62832;SDS011;48891;49.220;6.920;2024-02-23T08:34:30;8.80;;;6.80;;
62832;SDS011;48891;49.220;6.920;2024-02-23T08:36:56;8.93;;;7.30;;
62832;SDS011;48891;49.220;6.920;2024-02-23T08:39:21;10.93;;;7.05;;
62832;SDS011;48891;49.220;6.920;2024-02-23T08:41:46;9.38;;;7.45;;
62832;SDS011;48891;49.220;6.920;2024-02-23T08:44:11;10.60;;;7.63;;
62832;SDS011;48891;49.220;6.920;2024-02-23T08:46:37;9.85;;;7.53;;
62832;SDS011;48891;49.220;6.920;2024-02-23T08:49:02;9.93;;;7.57;;
62832;SDS011;48891;49.220;6.920;2024-02-23T08:51:27;11.02;;;7.70;;
62832;SDS011;48891;49.220;6.920;2024-02-23T08:53:52;9.70;;;7.50;;
62832;SDS011;48891;49.220;6.920;2024-02-23T08:56:18;10.18;;;7.90;;
62832;SDS011;48891;49.220;6.920;2024-02-23T08:58:43;10.18;;;7.10;;
62832;SDS011;48891;49.220;6.920;2024-02-23T09:01:08;9.68;;;7.45;;
62832;SDS011;48891;49.220;6.920;2024-02-23T09:03:33;9.95;;;7.25;;
62832;SDS011;48891;49.220;6.920;2024-02-23T09:05:59;11.27;;;7.55;;
62832;SDS011;48891;49.220;6.920;2024-02-23T09:08:24;9.30;;;7.20;;
62832;SDS011;48891;49.220;6.920;2024-02-23T09:10:49;11.07;;;8.00;;
62832;SDS011;48891;49.220;6.920;2024-02-23T09:13:14;10.70;;;7.65;;
62832;SDS011;48891;49.220;6.920;2024-02-23T09:15:39;11.15;;;7.88;;
62832;SDS011;48891;49.220;6.920;2024-02-23T09:18:05;10.35;;;7.80;;
62832;SDS011;48891;49.220;6.920;2024-02-23T09:20:30;12.68;;;7.90;;
62832;SDS011;48891;49.220;6.920;2024-02-23T09:22:55;12.55;;;8.40;;
62832;SDS011;48891;49.220;6.920;2024-02-23T09:25:21;9.45;;;7.40;;
62832;SDS011;48891;49.220;6.920;2024-02-23T09:27:46;10.55;;;7.85;;
62832;SDS011;48891;49.220;6.920;2024-02-23T09:30:12;10.80;;;8.18;;
62832;SDS011;48891;49.220;6.920;2024-02-23T09:32:38;9.93;;;7.65;;
62832;SDS011;48891;49.220;6.920;2024-02-23T09:35:03;12.90;;;8.30;;
62832;SDS011;48891;49.220;6.920;2024-02-23T09:37:29;11.57;;;7.90;;
62832;SDS011;48891;49.220;6.920;2024-02-23T09:39:54;11.68;;;7.97;;
62832;SDS011;48891;49.220;6.920;2024-02-23T09:42:19;10.55;;;8.05;;
62832;SDS011;48891;49.220;6.920;2024-02-23T09:44:47;10.38;;;7.72;;
62832;SDS011;48891;49.220;6.920;2024-02-23T09:47:18;10.45;;;7.90;;
62832;SDS011;48891;49.220;6.920;2024-02-23T09:49:43;10.63;;;8.45;;
62832;SDS011;48891;49.220;6.920;2024-02-23T09:52:09;12.10;;;7.78;;
62832;SDS011;48891;49.220;6.920;2024-02-23T09:54:36;9.93;;;8.02;;
62832;SDS011;48891;49.220;6.920;2024-02-23T09:57:02;9.77;;;7.45;;
62832;SDS011;48891;49.220;6.920;2024-02-23T09:59:34;10.40;;;7.80;;
62832;SDS011;48891;49.220;6.920;2024-02-23T10:02:00;10.77;;;8.13;;
62832;SDS011;48891;49.220;6.920;2024-02-23T10:04:39;11.82;;;8.30;;
62832;SDS011;48891;49.220;6.920;2024-02-23T10:07:08;11.13;;;8.20;;
62832;SDS011;48891;49.220;6.920;2024-02-23T10:09:33;10.73;;;8.38;;
62832;SDS011;48891;49.220;6.920;2024-02-23T10:11:58;10.45;;;7.43;;
62832;SDS011;48891;49.220;6.920;2024-02-23T10:14:23;11.27;;;7.53;;
62832;SDS011;48891;49.220;6.920;2024-02-23T10:16:49;9.82;;;7.88;;
62832;SDS011;48891;49.220;6.920;2024-02-23T10:19:14;10.45;;;7.43;;
62832;SDS011;48891;49.220;6.920;2024-02-23T10:21:39;10.95;;;7.85;;
62832;SDS011;48891;49.220;6.920;2024-02-23T10:24:05;11.98;;;8.15;;
62832;SDS011;48891;49.220;6.920;2024-02-23T10:26:30;10.32;;;8.15;;
62832;SDS011;48891;49.220;6.920;2024-02-23T10:28:56;10.63;;;7.38;;
62832;SDS011;48891;49.220;6.920;2024-02-23T10:31:22;12.48;;;8.60;;
62832;SDS011;48891;49.220;6.920;2024-02-23T10:33:50;10.30;;;7.73;;
62832;SDS011;48891;49.220;6.920;2024-02-23T10:36:16;11.00;;;7.15;;
62832;SDS011;48891;49.220;6.920;2024-02-23T10:38:43;9.43;;;7.28;;
62832;SDS011;48891;49.220;6.920;2024-02-23T10:41:12;11.38;;;7.68;;
62832;SDS011;48891;49.220;6.920;2024-02-23T10:43:42;10.98;;;7.13;;
62832;SDS011;48891;49.220;6.920;2024-02-23T10:46:09;9.88;;;7.95;;
62832;SDS011;48891;49.220;6.920;2024-02-23T10:48:37;13.90;;;8.73;;
62832;SDS011;48891;49.220;6.920;2024-02-23T10:51:03;10.27;;;7.55;;
62832;SDS011;48891;49.220;6.920;2024-02-23T10:53:29;10.32;;;8.02;;
62832;SDS011;48891;49.220;6.920;2024-02-23T10:55:56;10.20;;;8.00;;
62832;SDS011;48891;49.220;6.920;2024-02-23T10:58:22;11.00;;;8.13;;
62832;SDS011;48891;49.220;6.920;2024-02-23T11:00:47;10.00;;;7.15;;
62832;SDS011;48891;49.220;6.920;2024-02-23T11:03:12;11.23;;;7.78;;
62832;SDS011;48891;49.220;6.920;2024-02-23T11:05:39;10.63;;;7.40;;
62832;SDS011;48891;49.220;6.920;2024-02-23T11:08:05;10.88;;;8.10;;
62832;SDS011;48891;49.220;6.920;2024-02-23T11:10:31;10.57;;;8.15;;
62832;SDS011;48891;49.220;6.920;2024-02-23T11:12:57;9.77;;;7.70;;
62832;SDS011;48891;49.220;6.920;2024-02-23T11:15:26;10.93;;;7.55;;
62832;SDS011;48891;49.220;6.920;2024-02-23T11:17:53;11.73;;;7.85;;
62832;SDS011;48891;49.220;6.920;2024-02-23T11:20:19;9.82;;;7.30;;
62832;SDS011;48891;49.220;6.920;2024-02-23T11:22:45;10.75;;;7.78;;
62832;SDS011;48891;49.220;6.920;2024-02-23T11:25:16;10.00;;;7.78;;
62832;SDS011;48891;49.220;6.920;2024-02-23T11:27:42;11.73;;;7.88;;
62832;SDS011;48891;49.220;6.920;2024-02-23T11:30:07;9.00;;;7.63;;
62832;SDS011;48891;49.220;6.920;2024-02-23T11:32:43;10.88;;;7.55;;
62832;SDS011;48891;49.220;6.920;2024-02-23T11:35:11;9.57;;;7.07;;
62832;SDS011;48891;49.220;6.920;2024-02-23T11:40:17;9.50;;;7.95;;
62832;SDS011;48891;49.220;6.920;2024-02-23T11:42:42;9.52;;;7.40;;
62832;SDS011;48891;49.220;6.920;2024-02-23T11:45:08;11.60;;;7.72;;
62832;SDS011;48891;49.220;6.920;2024-02-23T11:47:33;9.45;;;7.68;;
62832;SDS011;48891;49.220;6.920;2024-02-23T11:49:59;9.98;;;6.90;;
62832;SDS011;48891;49.220;6.920;2024-02-23T11:52:24;8.68;;;7.03;;
62832;SDS011;48891;49.220;6.920;2024-02-23T11:54:49;10.77;;;7.85;;
62832;SDS011;48891;49.220;6.920;2024-02-23T11:57:15;9.48;;;7.20;;
62832;SDS011;48891;49.220;6.920;2024-02-23T11:59:40;10.48;;;7.25;;
62832;SDS011;48891;49.220;6.920;2024-02-23T12:02:06;10.23;;;7.32;;
62832;SDS011;48891;49.220;6.920;2024-02-23T12:04:31;9.73;;;7.05;;
62832;SDS011;48891;49.220;6.920;2024-02-23T12:06:56;9.57;;;7.28;;
62832;SDS011;48891;49.220;6.920;2024-02-23T12:09:22;9.93;;;7.68;;
62832;SDS011;48891;49.220;6.920;2024-02-23T12:11:47;9.40;;;7.15;;
62832;SDS011;48891;49.220;6.920;2024-02-23T12:14:13;9.77;;;7.70;;
62832;SDS011;48891;49.220;6.920;2024-02-23T12:16:39;9.68;;;7.38;;
62832;SDS011;48891;49.220;6.920;2024-02-23T12:19:05;9.32;;;7.18;;
62832;SDS011;48891;49.220;6.920;2024-02-23T12:21:34;10.52;;;7.43;;
62832;SDS011;48891;49.220;6.920;2024-02-23T12:24:00;9.05;;;7.28;;
62832;SDS011;48891;49.220;6.920;2024-02-23T12:26:29;9.95;;;7.30;;
62832;SDS011;48891;49.220;6.920;2024-02-23T12:28:59;9.13;;;7.05;;
62832;SDS011;48891;49.220;6.920;2024-02-23T12:31:25;8.90;;;7.20;;
62832;SDS011;48891;49.220;6.920;2024-02-23T12:33:50;8.70;;;6.72;;
62832;SDS011;48891;49.220;6.920;2024-02-23T12:36:15;10.20;;;7.35;;
62832;SDS011;48891;49.220;6.920;2024-02-23T12:38:41;9.02;;;6.53;;
62832;SDS011;48891;49.220;6.920;2024-02-23T12:41:06;10.32;;;7.40;;
62832;SDS011;48891;49.220;6.920;2024-02-23T12:43:31;10.93;;;6.75;;
62832;SDS011;48891;49.220;6.920;2024-02-23T12:45:57;8.98;;;6.97;;
62832;SDS011;48891;49.220;6.920;2024-02-23T12:48:22;9.48;;;7.55;;
62832;SDS011;48891;49.220;6.920;2024-02-23T12:50:48;9.45;;;7.22;;
62832;SDS011;48891;49.220;6.920;2024-02-23T12:56:03;11.30;;;7.78;;
62832;SDS011;48891;49.220;6.920;2024-02-23T12:58:29;9.95;;;7.45;;
62832;SDS011;48891;49.220;6.920;2024-02-23T13:00:56;10.93;;;7.18;;
62832;SDS011;48891;49.220;6.920;2024-02-23T13:03:21;10.20;;;7.00;;
62832;SDS011;48891;49.220;6.920;2024-02-23T13:05:47;9.95;;;6.82;;
62832;SDS011;48891;49.220;6.920;2024-02-23T13:08:12;9.75;;;7.10;;
62832;SDS011;48891;49.220;6.920;2024-02-23T13:10:37;9.57;;;7.03;;
62832;SDS011;48891;49.220;6.920;2024-02-23T13:13:02;8.48;;;6.80;;
62832;SDS011;48891;49.220;6.920;2024-02-23T13:15:28;9.18;;;7.18;;
62832;SDS011;48891;49.220;6.920;2024-02-23T13:17:53;8.88;;;6.78;;
62832;SDS011;48891;49.220;6.920;2024-02-23T13:20:18;9.07;;;6.57;;
62832;SDS011;48891;49.220;6.920;2024-02-23T13:22:43;9.32;;;6.75;;
62832;SDS011;48891;49.220;6.920;2024-02-23T13:25:09;8.60;;;6.40;;
62832;SDS011;48891;49.220;6.920;2024-02-23T13:27:34;10.15;;;6.53;;
62832;SDS011;48891;49.220;6.920;2024-02-23T13:29:59;9.18;;;7.10;;
62832;SDS011;48891;49.220;6.920;2024-02-23T13:32:24;8.60;;;6.85;;
62832;SDS011;48891;49.220;6.920;2024-02-23T13:34:50;10.23;;;7.63;;
62832;SDS011;48891;49.220;6.920;2024-02-23T13:37:15;8.60;;;6.57;;
62832;SDS011;48891;49.220;6.920;2024-02-23T13:39:40;9.02;;;6.80;;
62832;SDS011;48891;49.220;6.920;2024-02-23T13:42:05;8.55;;;7.05;;
62832;SDS011;48891;49.220;6.920;2024-02-23T13:44:31;9.25;;;7.20;;
62832;SDS011;48891;49.220;6.920;2024-02-23T13:46:56;9.32;;;7.22;;
62832;SDS011;48891;49.220;6.920;2024-02-23T13:49:21;8.85;;;6.72;;
62832;SDS011;48891;49.220;6.920;2024-02-23T13:51:47;8.63;;;6.40;;
62832;SDS011;48891;49.220;6.920;2024-02-23T13:54:12;9.02;;;6.70;;
62832;SDS011;48891;49.220;6.920;2024-02-23T13:56:37;9.90;;;6.85;;
62832;SDS011;48891;49.220;6.920;2024-02-23T13:59:02;9.05;;;6.53;;
62832;SDS011;48891;49.220;6.920;2024-02-23T14:01:27;9.43;;;7.15;;
62832;SDS011;48891;49.220;6.920;2024-02-23T14:03:53;9.02;;;6.90;;
62832;SDS011;48891;49.220;6.920;2024-02-23T14:06:18;10.57;;;6.75;;
62832;SDS011;48891;49.220;6.920;2024-02-23T14:08:43;8.20;;;6.43;;
62832;SDS011;48891;49.220;6.920;2024-02-23T14:11:09;8.75;;;6.88;;
62832;SDS011;48891;49.220;6.920;2024-02-23T14:13:34;10.15;;;7.30;;
62832;SDS011;48891;49.220;6.920;2024-02-23T14:15:59;9.00;;;6.80;;
62832;SDS011;48891;49.220;6.920;2024-02-23T14:18:24;8.35;;;6.70;;
62832;SDS011;48891;49.220;6.920;2024-02-23T14:20:50;8.43;;;6.50;;
62832;SDS011;48891;49.220;6.920;2024-02-23T14:23:15;9.25;;;7.35;;
62832;SDS011;48891;49.220;6.920;2024-02-23T14:25:40;9.02;;;7.57;;
62832;SDS011;48891;49.220;6.920;2024-02-23T14:28:06;8.77;;;7.22;;
62832;SDS011;48891;49.220;6.920;2024-02-23T14:30:31;9.25;;;7.15;;
62832;SDS011;48891;49.220;6.920;2024-02-23T14:32:56;9.48;;;7.18;;
62832;SDS011;48891;49.220;6.920;2024-02-23T14:35:21;7.78;;;6.15;;
62832;SDS011;48891;49.220;6.920;2024-02-23T14:37:47;8.75;;;6.78;;
62832;SDS011;48891;49.220;6.920;2024-02-23T14:40:12;9.27;;;7.20;;